Time;durP1;ratioP1;P1;durP2;ratioP2;P2;SDS_P1;SDS_P2;PMS_P1;PMS_P2;Temp;Humidity;BMP_temperature;BMP_pressure;BME280_temperature;BME280_humidity;BME280_pressure;Samples;Min_cycle;Max_cycle;Signal;HPM_P1;HPM_P2
2022/01/13 00:00:56;;;;;;;25.80;18.07;;;;;;;-1.16;82.78;98696.31;5058904;28;20236;-65
2022/01/13 00:03:22;;;;;;;23.23;17.33;;;;;;;-1.12;83.99;98692.81;5059966;28;20203;-67
2022/01/13 00:05:49;;;;;;;24.10;17.30;;;;;;;-1.05;84.55;98686.63;5057525;28;20203;-66
2022/01/13 00:08:15;;;;;;;22.83;18.00;;;;;;;-1.03;83.84;98682.25;5062268;28;20207;-66
2022/01/13 00:10:42;;;;;;;22.07;17.53;;;;;;;-1.01;84.14;98687.44;5064925;28;20230;-65
2022/01/13 00:13:10;;;;;;;26.43;18.83;;;;;;;-0.97;83.32;98693.47;5060065;28;20206;-67
2022/01/13 00:15:41;;;;;;;24.50;18.53;;;;;;;-1.09;83.25;98692.75;5059447;28;20188;-67
2022/01/13 00:18:15;;;;;;;21.90;17.97;;;;;;;-0.99;83.49;98690.88;5070382;28;20179;-66
2022/01/13 00:21:11;;;;;;;24.83;19.03;;;;;;;-1.07;82.79;98688.41;5059772;28;20220;-66
2022/01/13 00:23:41;;;;;;;25.10;19.67;;;;;;;-0.98;83.02;98689.13;5056163;28;20290;-66
2022/01/13 00:26:16;;;;;;;24.50;19.47;;;;;;;-0.99;83.14;98706.44;5057650;28;20635;-66
2022/01/13 00:28:44;;;;;;;25.27;18.70;;;;;;;-1.01;83.39;98706.50;5057442;28;20505;-67
2022/01/13 00:31:10;;;;;;;25.37;19.37;;;;;;;-1.01;83.17;98709.09;5057215;28;20243;-67
2022/01/13 00:33:44;;;;;;;28.97;19.53;;;;;;;-1.09;83.18;98699.69;5053206;28;20212;-64
2022/01/13 00:36:10;;;;;;;26.67;20.10;;;;;;;-1.07;83.30;98697.94;5039068;28;20230;-64
2022/01/13 00:38:37;;;;;;;25.07;19.40;;;;;;;-1.02;83.70;98707.34;5050636;28;20657;-66
2022/01/13 00:41:04;;;;;;;26.93;19.93;;;;;;;-1.12;82.80;98695.41;5058006;28;20306;-67
2022/01/13 00:43:31;;;;;;;25.17;18.97;;;;;;;-0.98;83.13;98691.72;5058198;28;20254;-65
2022/01/13 00:45:58;;;;;;;26.07;19.50;;;;;;;-1.07;83.00;98696.19;5058028;28;20207;-66
2022/01/13 00:48:24;;;;;;;27.73;20.13;;;;;;;-1.06;83.59;98690.09;5057952;28;20624;-66
2022/01/13 00:50:52;;;;;;;27.70;20.20;;;;;;;-1.04;83.50;98693.56;5058077;28;20231;-66
2022/01/13 00:53:19;;;;;;;26.67;20.57;;;;;;;-0.97;84.18;98694.31;5044674;28;20207;-66
2022/01/13 00:55:48;;;;;;;26.73;19.87;;;;;;;-1.01;83.72;98696.09;5042656;28;20204;-66
2022/01/13 00:58:15;;;;;;;24.43;19.30;;;;;;;-1.02;83.96;98704.75;5045464;28;20238;-66
2022/01/13 01:00:42;;;;;;;23.73;18.27;;;;;;;-0.95;84.95;98702.94;5058036;28;20211;-64
2022/01/13 01:03:09;;;;;;;26.30;19.90;;;;;;;-0.88;83.59;98695.91;5056657;28;20528;-65
2022/01/13 01:05:36;;;;;;;26.90;19.70;;;;;;;-0.91;83.82;98701.16;5057914;28;20213;-65
2022/01/13 01:08:05;;;;;;;26.07;20.13;;;;;;;-0.78;84.04;98705.28;5058798;28;20214;-65
2022/01/13 01:10:31;;;;;;;27.60;19.80;;;;;;;-0.73;83.23;98711.25;5058794;28;20232;-68
2022/01/13 01:12:58;;;;;;;27.33;20.27;;;;;;;-0.87;83.29;98706.28;5057621;28;20207;-66
2022/01/13 01:15:25;;;;;;;30.10;21.13;;;;;;;-0.87;83.37;98706.28;5048931;28;20280;-66
2022/01/13 01:18:00;;;;;;;27.50;20.43;;;;;;;-0.85;84.13;98707.09;5036882;28;20212;-66
2022/01/13 01:20:30;;;;;;;28.00;20.80;;;;;;;-0.89;84.60;98708.06;5036387;28;20677;-66
2022/01/13 01:23:10;;;;;;;27.07;20.77;;;;;;;-0.92;83.59;98720.22;5048671;28;20194;-67
2022/01/13 01:25:45;;;;;;;28.47;21.00;;;;;;;-0.91;84.00;98714.13;5056426;28;20211;-65
2022/01/13 01:28:18;;;;;;;27.13;21.00;;;;;;;-0.91;84.47;98716.72;5065238;28;20478;-65
2022/01/13 01:30:47;;;;;;;27.57;20.53;;;;;;;-1.00;83.91;98720.34;5050825;28;20215;-65
2022/01/13 01:33:17;;;;;;;26.63;20.83;;;;;;;-0.96;84.51;98728.94;5057208;28;20302;-66
2022/01/13 01:35:43;;;;;;;29.00;21.57;;;;;;;-0.96;85.33;98732.41;5036618;28;20218;-66
2022/01/13 01:38:10;;;;;;;27.80;20.07;;;;;;;-0.91;84.72;98724.53;5045379;28;20260;-66
2022/01/13 01:40:38;;;;;;;27.13;21.03;;;;;;;-0.89;84.85;98728.84;5056373;28;20222;-65
2022/01/13 01:43:04;;;;;;;29.53;20.97;;;;;;;-0.89;84.89;98727.97;5056354;28;20203;-64
2022/01/13 01:45:34;;;;;;;27.47;21.00;;;;;;;-0.96;84.57;98727.22;5056167;28;20282;-65
2022/01/13 01:48:03;;;;;;;26.20;20.50;;;;;;;-0.85;85.49;98729.66;5056329;28;20203;-64
2022/01/13 01:50:35;;;;;;;26.70;21.03;;;;;;;-0.84;85.93;98726.16;5055855;28;20228;-65
2022/01/13 01:53:02;;;;;;;30.50;21.13;;;;;;;-0.76;85.30;98729.50;5052180;28;20210;-65
2022/01/13 01:55:28;;;;;;;27.20;21.27;;;;;;;-0.77;85.45;98738.16;5036002;28;20240;-66
2022/01/13 01:57:56;;;;;;;28.47;21.70;;;;;;;-0.77;84.35;98738.16;5036150;28;20211;-64
2022/01/13 02:00:24;;;;;;;30.00;20.97;;;;;;;-0.74;84.60;98738.97;5047098;28;20206;-65
2022/01/13 02:02:51;;;;;;;28.53;21.17;;;;;;;-0.82;83.93;98746.03;5055673;28;20203;-65
2022/01/13 02:05:17;;;;;;;27.47;20.97;;;;;;;-0.76;84.42;98747.69;5055913;28;20298;-66
2022/01/13 02:07:44;;;;;;;26.20;21.13;;;;;;;-0.73;83.71;98748.50;5056220;28;20207;-67
2022/01/13 02:10:11;;;;;;;30.83;22.60;;;;;;;-0.74;83.21;98743.31;5055515;28;20203;-65
2022/01/13 02:12:42;;;;;;;27.73;20.80;;;;;;;-0.72;83.58;98736.38;5055485;28;20250;-64
2022/01/13 02:15:29;;;;;;;34.53;20.97;;;;;;;-0.81;83.45;98744.28;5045121;28;20208;-67
2022/01/13 02:17:58;;;;;;;30.03;22.13;;;;;;;-0.86;84.23;98741.78;5045537;28;20226;-67
2022/01/13 02:20:40;;;;;;;26.90;20.77;;;;;;;-0.81;83.61;98749.47;5055571;28;20604;-65
2022/01/13 02:23:07;;;;;;;28.80;21.00;;;;;;;-0.88;83.21;98750.44;5055216;28;20209;-65
2022/01/13 02:25:33;;;;;;;29.67;22.00;;;;;;;-0.92;83.51;98743.59;5050366;28;20207;-67
2022/01/13 02:28:00;;;;;;;30.00;21.47;;;;;;;-0.92;84.46;98741.84;5054476;28;20206;-66
2022/01/13 02:30:26;;;;;;;28.63;20.77;;;;;;;-0.96;83.44;98742.78;5055267;28;20222;-65
2022/01/13 02:32:53;;;;;;;27.03;20.47;;;;;;;-0.93;84.20;98728.91;5055773;28;20554;-65
2022/01/13 02:35:19;;;;;;;26.57;19.63;;;;;;;-0.96;83.91;98728.94;5055497;28;20550;-66
2022/01/13 02:37:47;;;;;;;30.17;21.27;;;;;;;-0.91;84.26;98732.31;5055800;28;20206;-66
2022/01/13 02:40:14;;;;;;;27.23;20.73;;;;;;;-0.97;83.38;98720.28;5055324;28;20214;-65
2022/01/13 02:42:40;;;;;;;29.83;22.53;;;;;;;-0.96;83.47;98716.81;5057047;28;20198;-66
2022/01/13 02:45:16;;;;;;;28.83;21.17;;;;;;;-0.92;83.72;98717.63;5055148;28;20214;-66
2022/01/13 02:48:11;;;;;;;29.93;21.70;;;;;;;-0.93;83.90;98719.38;5056005;28;20206;-67
2022/01/13 02:50:39;;;;;;;29.70;21.23;;;;;;;-0.91;84.02;98708.94;5044406;28;20199;-66
2022/01/13 02:53:07;;;;;;;30.80;22.47;;;;;;;-0.97;83.37;98725.47;5053525;28;20213;-65
2022/01/13 02:55:34;;;;;;;30.30;21.53;;;;;;;-0.86;84.26;98712.34;5044207;28;20642;-65
2022/01/13 02:58:01;;;;;;;31.50;22.23;;;;;;;-0.81;84.23;98715.72;5055749;28;20545;-65
2022/01/13 03:00:27;;;;;;;29.20;21.30;;;;;;;-0.78;84.86;98713.91;5056267;28;20217;-65
2022/01/13 03:02:54;;;;;;;31.27;22.83;;;;;;;-0.89;83.52;98707.19;5052991;28;20207;-66
2022/01/13 03:05:20;;;;;;;29.87;22.00;;;;;;;-0.83;83.75;98705.34;5045023;28;20651;-65
2022/01/13 03:07:47;;;;;;;34.00;23.70;;;;;;;-0.93;83.38;98721.09;5039785;28;20247;-66
2022/01/13 03:10:16;;;;;;;28.87;22.57;;;;;;;-0.89;83.21;98707.19;5052651;28;20296;-66
2022/01/13 03:12:45;;;;;;;29.67;21.63;;;;;;;-0.86;83.17;98715.81;5056523;28;20230;-66
2022/01/13 03:15:11;;;;;;;28.43;21.93;;;;;;;-0.91;83.32;98727.13;5053867;28;20206;-65
2022/01/13 03:17:38;;;;;;;30.70;21.73;;;;;;;-0.86;83.67;98731.38;5035337;28;20216;-66
2022/01/13 03:20:05;;;;;;;30.87;22.67;;;;;;;-0.88;82.23;98719.28;5049375;28;20203;-65
2022/01/13 03:22:32;;;;;;;28.23;21.30;;;;;;;-0.89;82.99;98707.19;5054912;28;20618;-66
2022/01/13 03:24:58;;;;;;;27.87;21.50;;;;;;;-1.02;83.00;98722.09;5040561;28;20216;-66
2022/01/13 03:27:34;;;;;;;29.17;22.00;;;;;;;-1.06;82.33;98720.41;5036911;28;20204;-66
2022/01/13 03:30:02;;;;;;;29.50;21.63;;;;;;;-1.07;81.99;98716.97;5038558;28;20639;-65
2022/01/13 03:32:28;;;;;;;29.30;21.70;;;;;;;-0.99;82.90;98710.81;5038569;28;20253;-66
2022/01/13 03:34:55;;;;;;;29.80;21.77;;;;;;;-1.10;82.28;98714.38;5052807;28;20219;-67
2022/01/13 03:37:21;;;;;;;27.17;21.23;;;;;;;-1.16;82.19;98714.50;5045395;28;20211;-66
2022/01/13 03:39:48;;;;;;;29.57;21.27;;;;;;;-1.20;82.55;98701.56;5041461;28;20222;-66
2022/01/13 03:42:14;;;;;;;29.37;22.17;;;;;;;-1.20;82.79;98717.13;5049995;28;20286;-66
2022/01/13 03:44:42;;;;;;;30.20;22.30;;;;;;;-1.22;83.39;98719.78;5057229;28;20233;-66
2022/01/13 03:47:10;;;;;;;29.40;22.30;;;;;;;-1.25;83.48;98714.63;5058385;28;20217;-66
2022/01/13 03:49:37;;;;;;;30.40;21.30;;;;;;;-1.18;84.00;98711.06;5058631;28;20239;-66
2022/01/13 03:52:42;;;;;;;28.80;20.67;;;;;;;-1.13;83.84;98706.66;5059397;28;20234;-67
2022/01/13 03:55:59;;;;;;;30.47;22.27;;;;;;;-1.13;83.21;98701.47;5049432;28;20212;-66
2022/01/13 03:59:13;;;;;;;29.73;21.87;;;;;;;-1.14;83.41;98712.75;5047603;28;20207;-66
2022/01/13 04:02:00;;;;;;;32.87;22.47;;;;;;;-1.11;83.07;98712.69;4996369;28;20241;-67
2022/01/13 04:04:27;;;;;;;30.67;21.60;;;;;;;-0.98;83.74;98702.97;4993269;28;20198;-67
2022/01/13 04:07:05;;;;;;;29.60;22.47;;;;;;;-1.04;83.58;98703.06;5024737;28;20212;-65
2022/01/13 04:10:04;;;;;;;32.07;22.67;;;;;;;-0.99;83.28;98705.63;5051675;28;20214;-66
2022/01/13 04:12:31;;;;;;;32.87;22.90;;;;;;;-0.93;82.89;98697.72;5062025;28;20647;-67
2022/01/13 04:14:59;;;;;;;33.67;23.23;;;;;;;-1.09;82.74;98687.56;5063760;28;20253;-66
2022/01/13 04:17:28;;;;;;;32.73;23.30;;;;;;;-1.10;83.87;98691.03;5063858;28;20533;-67
2022/01/13 04:19:56;;;;;;;31.73;23.03;;;;;;;-1.01;83.33;98688.31;5065021;28;20221;-67
2022/01/13 04:22:22;;;;;;;33.87;23.00;;;;;;;-1.01;83.93;98693.50;5066461;28;20210;-67
2022/01/13 04:24:51;;;;;;;30.93;22.57;;;;;;;-1.02;82.87;98685.72;5063901;28;20207;-66
2022/01/13 04:27:22;;;;;;;31.27;23.77;;;;;;;-0.99;83.92;98687.44;5068627;28;20207;-66
2022/01/13 04:30:00;;;;;;;29.20;21.97;;;;;;;-0.98;83.00;98692.59;5052898;28;20671;-67
2022/01/13 04:32:27;;;;;;;32.20;23.20;;;;;;;-0.95;83.63;98691.69;5044331;28;20216;-68
2022/01/13 04:34:54;;;;;;;31.00;23.47;;;;;;;-0.95;83.62;98700.34;5058117;28;20211;-68
2022/01/13 04:37:20;;;;;;;32.03;22.60;;;;;;;-1.00;83.55;98709.94;5042978;28;20686;-67
2022/01/13 04:39:47;;;;;;;38.20;24.27;;;;;;;-1.02;83.75;98719.47;5059595;28;20222;-66
2022/01/13 04:42:14;;;;;;;31.53;23.00;;;;;;;-0.99;83.45;98710.81;5048804;28;20203;-67
2022/01/13 04:44:40;;;;;;;32.33;23.03;;;;;;;-0.98;82.73;98712.50;5061127;28;20293;-66
2022/01/13 04:47:07;;;;;;;30.40;22.97;;;;;;;-0.99;83.60;98716.00;5058742;28;20204;-67
2022/01/13 04:49:35;;;;;;;31.63;22.73;;;;;;;-0.95;83.29;98707.25;5056971;28;20210;-65
2022/01/13 04:52:02;;;;;;;30.00;22.50;;;;;;;-0.99;82.55;98710.81;5057151;28;20234;-66
2022/01/13 04:54:28;;;;;;;30.70;22.77;;;;;;;-0.93;83.31;98701.19;5056940;28;20211;-66
2022/01/13 04:57:05;;;;;;;32.50;22.57;;;;;;;-1.05;82.68;98712.59;5063258;28;20226;-67
2022/01/13 04:59:32;;;;;;;29.40;22.33;;;;;;;-1.21;82.56;98707.66;5072275;28;20257;-66
2022/01/13 05:02:00;;;;;;;33.23;22.30;;;;;;;-1.18;82.72;98707.59;5074097;28;20226;-67
2022/01/13 05:04:26;;;;;;;32.43;22.77;;;;;;;-1.05;83.47;98707.41;5066580;28;20211;-66
2022/01/13 05:06:54;;;;;;;31.90;23.13;;;;;;;-1.14;82.80;98701.50;5051839;28;20211;-67
2022/01/13 05:09:20;;;;;;;31.83;22.47;;;;;;;-1.26;83.05;98691.28;5052149;28;20209;-66
2022/01/13 05:11:47;;;;;;;32.33;22.93;;;;;;;-1.27;82.35;98695.59;5069260;28;20226;-66
2022/01/13 05:14:13;;;;;;;31.80;22.20;;;;;;;-1.23;82.96;98697.28;5072490;28;20202;-66
2022/01/13 05:16:53;;;;;;;34.07;23.30;;;;;;;-1.28;82.45;98699.09;5066505;28;20218;-66
2022/01/13 05:19:24;;;;;;;34.30;23.30;;;;;;;-1.25;83.12;98704.25;5050323;28;20210;-66
2022/01/13 05:22:15;;;;;;;30.10;22.50;;;;;;;-1.12;83.69;98695.41;5060858;28;20601;-66
2022/01/13 05:24:44;;;;;;;31.37;22.63;;;;;;;-1.16;82.63;98704.09;5062142;28;20199;-67
2022/01/13 05:27:11;;;;;;;29.53;21.90;;;;;;;-1.12;82.85;98702.31;5059303;28;20206;-66
2022/01/13 05:29:37;;;;;;;30.20;22.23;;;;;;;-1.11;82.55;98701.44;5058578;28;20222;-66
2022/01/13 05:32:04;;;;;;;32.90;22.80;;;;;;;-1.14;82.78;98696.31;5058413;28;20227;-66
2022/01/13 05:34:31;;;;;;;33.27;23.50;;;;;;;-1.11;83.40;98702.31;5052196;28;20191;-66
2022/01/13 05:36:57;;;;;;;33.00;23.10;;;;;;;-1.27;82.34;98705.97;5040347;28;20208;-66
2022/01/13 05:39:23;;;;;;;31.60;22.97;;;;;;;-1.10;82.54;98704.00;5063090;28;20210;-66
2022/01/13 05:41:51;;;;;;;31.13;22.50;;;;;;;-1.24;82.20;98695.56;5065900;28;20225;-67
2022/01/13 05:44:18;;;;;;;33.97;23.40;;;;;;;-1.15;82.90;98700.63;5063554;28;20215;-66
2022/01/13 05:46:45;;;;;;;32.63;23.97;;;;;;;-1.13;82.93;98685.88;5059539;28;20298;-66
2022/01/13 05:49:11;;;;;;;34.67;24.47;;;;;;;-1.17;83.32;98681.59;5059372;28;20327;-67
2022/01/13 05:51:37;;;;;;;34.20;24.33;;;;;;;-1.23;82.91;98681.69;5063919;28;20207;-65
2022/01/13 05:54:04;;;;;;;34.83;24.23;;;;;;;-1.27;83.27;98687.81;5064212;28;20215;-66
2022/01/13 05:56:30;;;;;;;32.87;23.30;;;;;;;-1.27;83.54;98690.41;5053921;28;20211;-67
2022/01/13 05:58:58;;;;;;;31.93;23.03;;;;;;;-1.23;82.90;98691.22;5065405;28;20211;-66
2022/01/13 06:01:25;;;;;;;33.80;24.20;;;;;;;-1.19;82.84;98693.75;5049400;28;20243;-67
2022/01/13 06:03:51;;;;;;;33.27;23.57;;;;;;;-1.21;83.07;98705.91;5061156;28;20203;-67
2022/01/13 06:06:17;;;;;;;34.83;23.50;;;;;;;-1.20;82.99;98706.75;5071704;28;20211;-67
2022/01/13 06:08:44;;;;;;;33.53;23.30;;;;;;;-1.39;83.08;98695.78;5070423;28;20213;-65
2022/01/13 06:11:10;;;;;;;36.07;24.67;;;;;;;-1.35;83.94;98702.66;5070285;28;20215;-66
2022/01/13 06:13:37;;;;;;;32.43;23.40;;;;;;;-1.41;83.07;98707.03;5059805;28;20222;-65
2022/01/13 06:16:05;;;;;;;34.33;24.80;;;;;;;-1.44;83.24;98701.91;5058856;28;20210;-65
2022/01/13 06:18:31;;;;;;;35.60;24.47;;;;;;;-1.49;83.17;98707.16;5060682;28;20219;-66
2022/01/13 06:20:57;;;;;;;31.77;23.20;;;;;;;-1.48;83.63;98711.44;5058753;28;20211;-65
2022/01/13 06:23:24;;;;;;;33.77;23.53;;;;;;;-1.46;83.77;98707.13;5042877;28;20202;-66
2022/01/13 06:25:50;;;;;;;35.47;24.87;;;;;;;-1.43;83.73;98717.47;5059630;28;20214;-65
2022/01/13 06:28:17;;;;;;;31.20;22.70;;;;;;;-1.33;83.31;98723.38;5058551;28;20551;-67
2022/01/13 06:30:44;;;;;;;36.67;25.80;;;;;;;-1.47;84.06;98723.56;5058463;28;20207;-66
2022/01/13 06:33:11;;;;;;;34.73;23.50;;;;;;;-1.44;83.78;98718.31;5057395;28;20682;-66
2022/01/13 06:35:38;;;;;;;35.43;25.47;;;;;;;-1.44;84.13;98715.72;5058292;28;20210;-64
2022/01/13 06:38:04;;;;;;;36.47;25.63;;;;;;;-1.47;83.68;98717.50;5059142;28;20211;-65
2022/01/13 06:40:31;;;;;;;36.33;25.07;;;;;;;-1.56;83.87;98714.13;5059829;28;20211;-67
2022/01/13 06:42:57;;;;;;;34.73;24.37;;;;;;;-1.46;84.74;98704.53;5061982;28;20286;-66
2022/01/13 06:45:24;;;;;;;33.50;23.67;;;;;;;-1.48;83.88;98708.00;5060453;28;20203;-66
2022/01/13 06:47:51;;;;;;;34.27;23.90;;;;;;;-1.44;83.66;98707.94;5062656;28;20543;-65
2022/01/13 06:50:19;;;;;;;35.20;24.50;;;;;;;-1.52;83.35;98717.56;5061365;28;20218;-66
2022/01/13 06:52:47;;;;;;;35.37;23.70;;;;;;;-1.57;83.40;98721.97;5062467;28;20223;-65
2022/01/13 06:55:14;;;;;;;34.17;23.53;;;;;;;-1.58;83.40;98721.09;5052948;28;20620;-65
2022/01/13 06:57:40;;;;;;;34.00;23.80;;;;;;;-1.60;84.56;98722.88;5058831;28;20213;-66
2022/01/13 07:00:08;;;;;;;36.70;23.73;;;;;;;-1.66;83.81;98729.84;5049903;28;20218;-67
2022/01/13 07:02:36;;;;;;;35.00;22.83;;;;;;;-1.61;83.64;98731.50;5059145;28;20223;-66
2022/01/13 07:05:03;;;;;;;33.43;22.97;;;;;;;-1.61;83.09;98735.84;5063028;28;20199;-66
2022/01/13 07:07:35;;;;;;;35.47;23.83;;;;;;;-1.64;83.67;98738.47;5044736;28;20640;-66
2022/01/13 07:10:01;;;;;;;34.60;23.47;;;;;;;-1.69;83.28;98748.03;5044516;28;20649;-66
2022/01/13 07:12:28;;;;;;;31.40;23.03;;;;;;;-1.64;83.73;98738.47;5058874;28;20233;-66
2022/01/13 07:14:55;;;;;;;34.47;23.40;;;;;;;-1.68;83.44;98745.44;5058792;28;20614;-68
2022/01/13 07:17:22;;;;;;;32.67;23.63;;;;;;;-1.70;83.61;98751.53;5058557;28;20203;-66
2022/01/13 07:19:51;;;;;;;36.03;24.47;;;;;;;-1.76;84.06;98755.03;5058981;28;20214;-67
2022/01/13 07:22:17;;;;;;;32.33;23.30;;;;;;;-1.65;83.84;98749.72;5058903;28;20199;-65
2022/01/13 07:24:45;;;;;;;36.87;24.53;;;;;;;-1.61;84.25;98752.28;5059340;28;20203;-64
2022/01/13 07:27:12;;;;;;;35.47;23.00;;;;;;;-1.36;87.56;98744.19;5058168;28;20207;-64
2022/01/13 07:29:39;;;;;;;36.00;23.30;;;;;;;-1.21;86.51;98751.78;5045782;28;20237;-64
2022/01/13 07:32:06;;;;;;;35.70;23.83;;;;;;;-0.98;86.14;98754.06;5057524;28;20607;-64
2022/01/13 07:34:33;;;;;;;31.33;22.87;;;;;;;-1.04;83.68;98745.50;5057303;28;20203;-64
2022/01/13 07:36:59;;;;;;;40.23;26.07;;;;;;;-1.16;83.11;98745.63;5037972;28;20650;-64
2022/01/13 07:39:26;;;;;;;34.17;23.93;;;;;;;-1.14;82.93;98743.91;5056915;28;20209;-64
2022/01/13 07:41:53;;;;;;;37.30;24.23;;;;;;;-1.27;82.55;98739.72;5058198;28;20222;-66
2022/01/13 07:44:20;;;;;;;39.93;25.20;;;;;;;-1.27;83.21;98742.31;5058517;28;20292;-65
2022/01/13 07:46:46;;;;;;;35.20;23.70;;;;;;;-1.18;82.57;98746.56;5053760;28;20207;-66
2022/01/13 07:49:13;;;;;;;33.03;23.90;;;;;;;-1.31;82.64;98756.22;5046644;28;20600;-65
2022/01/13 07:51:40;;;;;;;32.30;23.20;;;;;;;-1.37;82.73;98745.91;5048340;28;20200;-66
2022/01/13 07:54:06;;;;;;;34.07;23.23;;;;;;;-1.39;82.74;98742.50;5039986;28;20254;-65
2022/01/13 07:56:33;;;;;;;33.10;22.80;;;;;;;-1.51;82.13;98753.00;5040075;28;20208;-66
2022/01/13 07:59:00;;;;;;;32.77;22.93;;;;;;;-1.41;83.04;98752.03;5054056;28;20218;-65
2022/01/13 08:01:27;;;;;;;34.87;23.37;;;;;;;-1.47;81.82;98759.88;5058013;28;20701;-66
2022/01/13 08:03:53;;;;;;;34.67;23.40;;;;;;;-1.31;82.69;98761.41;5049878;28;20603;-66
2022/01/13 08:06:23;;;;;;;32.37;22.33;;;;;;;-1.44;81.95;98762.44;5060221;28;20211;-65
2022/01/13 08:08:50;;;;;;;32.23;22.33;;;;;;;-1.45;82.19;98758.13;5062346;28;20222;-64
2022/01/13 08:11:17;;;;;;;34.03;23.07;;;;;;;-1.46;81.98;98771.13;5060025;28;20203;-65
2022/01/13 08:13:44;;;;;;;34.33;22.53;;;;;;;-1.55;82.65;98772.06;5058366;28;20227;-63
2022/01/13 08:16:11;;;;;;;33.07;21.90;;;;;;;-1.39;82.49;98778.81;5053733;28;20204;-64
2022/01/13 08:21:23;;;;;;;30.73;21.97;;;;;;;-1.29;82.76;98780.44;5059377;28;20205;-64
2022/01/13 08:23:50;;;;;;;31.27;23.23;;;;;;;-1.30;82.18;98778.69;5059776;28;20207;-64
2022/01/13 08:26:17;;;;;;;31.73;22.47;;;;;;;-1.36;81.64;98778.78;5059563;28;20208;-65
2022/01/13 08:28:44;;;;;;;34.67;22.83;;;;;;;-1.27;82.29;98780.38;5055962;28;20210;-65
2022/01/13 08:31:12;;;;;;;30.57;22.27;;;;;;;-1.33;81.84;98773.56;5052005;28;20483;-64
2022/01/13 08:33:39;;;;;;;30.80;21.40;;;;;;;-1.18;82.06;98777.69;5056031;28;20235;-64
2022/01/13 08:36:06;;;;;;;30.37;21.87;;;;;;;-1.13;81.70;98770.69;5053609;28;20595;-65
2022/01/13 08:38:34;;;;;;;28.77;21.70;;;;;;;-1.21;81.58;98768.22;5055145;28;20214;-65
2022/01/13 08:41:01;;;;;;;30.90;22.27;;;;;;;-1.13;81.63;98766.38;5047298;28;20623;-65
2022/01/13 08:43:29;;;;;;;31.37;22.73;;;;;;;-1.04;81.69;98770.59;5056195;28;20627;-65
2022/01/13 08:45:56;;;;;;;32.77;22.33;;;;;;;-1.06;80.65;98767.13;5057236;28;20513;-64
2022/01/13 08:48:24;;;;;;;36.67;23.13;;;;;;;-1.04;80.54;98766.25;5072807;28;20211;-64
2022/01/13 08:50:50;;;;;;;32.27;21.90;;;;;;;-1.01;81.41;98767.94;5071943;28;20207;-65
2022/01/13 08:53:18;;;;;;;30.67;21.73;;;;;;;-1.04;81.01;98771.44;5069600;28;20504;-65
2022/01/13 08:55:44;;;;;;;33.07;22.00;;;;;;;-1.17;80.48;98775.06;5069675;28;20214;-65
2022/01/13 08:58:11;;;;;;;29.87;22.13;;;;;;;-1.01;80.71;98773.16;5067535;28;20199;-66
2022/01/13 09:00:38;;;;;;;30.17;21.67;;;;;;;-1.11;79.78;98774.16;5060515;28;20218;-65
2022/01/13 09:03:07;;;;;;;33.47;21.80;;;;;;;-0.99;81.11;98767.94;5054404;28;20207;-64
2022/01/13 09:05:35;;;;;;;30.87;21.33;;;;;;;-0.93;80.84;98773.03;5057318;28;20580;-64
2022/01/13 09:08:03;;;;;;;34.37;24.50;;;;;;;-0.81;79.98;98771.13;5058212;28;20208;-65
2022/01/13 09:10:29;;;;;;;32.80;23.13;;;;;;;-0.89;80.38;98761.75;5053230;28;20200;-65
2022/01/13 09:12:56;;;;;;;32.43;22.07;;;;;;;-0.63;80.16;98754.41;5058532;28;20230;-65
2022/01/13 09:15:32;;;;;;;32.60;23.57;;;;;;;-0.63;78.97;98751.81;5059213;28;20639;-65
2022/01/13 09:18:06;;;;;;;31.17;21.77;;;;;;;-0.62;79.73;98758.72;5066085;28;20190;-65
2022/01/13 09:20:34;;;;;;;32.03;22.30;;;;;;;-0.77;78.88;98769.34;5067012;28;20282;-65
2022/01/13 09:23:01;;;;;;;28.60;21.47;;;;;;;-0.67;79.29;98765.72;5074753;28;20206;-64
2022/01/13 09:25:27;;;;;;;31.43;21.83;;;;;;;-0.66;79.39;98763.09;5059354;28;20221;-65
2022/01/13 09:27:54;;;;;;;31.80;21.23;;;;;;;-0.57;79.38;98762.13;5058818;28;20271;-65
2022/01/13 09:30:20;;;;;;;30.57;20.43;;;;;;;-0.68;79.69;98767.50;5051052;28;20218;-65
2022/01/13 09:32:47;;;;;;;31.90;22.27;;;;;;;-0.55;79.77;98765.53;5048807;28;20334;-65
2022/01/13 09:35:14;;;;;;;31.73;22.60;;;;;;;-0.59;78.85;98779.47;5064352;28;20218;-64
2022/01/13 09:37:42;;;;;;;30.47;21.93;;;;;;;-0.44;79.17;98778.38;5056993;28;20203;-64
2022/01/13 09:40:10;;;;;;;31.97;22.77;;;;;;;-0.43;78.14;98775.78;5057244;28;20239;-65
2022/01/13 09:42:40;;;;;;;30.23;21.23;;;;;;;-0.32;78.61;98778.19;5057085;28;20207;-65
2022/01/13 09:45:10;;;;;;;30.30;22.07;;;;;;;-0.23;78.56;98784.09;5056622;28;20207;-65
2022/01/13 09:47:38;;;;;;;32.40;22.17;;;;;;;-0.24;78.18;98777.16;5058046;28;20191;-65
2022/01/13 09:50:10;;;;;;;29.97;22.10;;;;;;;-0.06;78.10;98771.66;5056694;28;20518;-65
2022/01/13 09:52:36;;;;;;;31.10;22.23;;;;;;;-0.23;76.67;98772.84;5056409;28;20211;-65
2022/01/13 09:55:05;;;;;;;30.10;20.77;;;;;;;-0.21;76.87;98777.13;5048693;28;20214;-65
2022/01/13 09:57:31;;;;;;;28.20;21.83;;;;;;;-0.38;76.61;98784.34;5049868;28;20208;-65
2022/01/13 09:59:58;;;;;;;30.10;21.13;;;;;;;-0.38;76.96;98780.88;5036562;28;20213;-66
2022/01/13 10:02:25;;;;;;;26.73;20.37;;;;;;;-0.39;77.40;98782.59;5043238;28;20252;-66
2022/01/13 10:04:53;;;;;;;28.97;20.83;;;;;;;-0.30;77.04;98782.47;5045503;28;20641;-65
2022/01/13 10:07:31;;;;;;;30.90;21.87;;;;;;;-0.23;77.39;98780.63;5056483;28;20593;-66
2022/01/13 10:10:00;;;;;;;31.63;22.40;;;;;;;-0.06;76.52;98782.06;5047648;28;20314;-65
2022/01/13 10:12:33;;;;;;;32.27;23.30;;;;;;;-0.12;75.67;98776.13;5052190;28;20215;-65
2022/01/13 10:17:46;;;;;;;29.67;21.77;;;;;;;-0.16;75.59;98777.03;5056498;28;20215;-65
2022/01/13 10:20:14;;;;;;;32.83;22.40;;;;;;;-0.10;76.19;98772.59;5055447;28;20538;-66
2022/01/13 10:22:40;;;;;;;32.70;22.23;;;;;;;-0.15;76.61;98771.84;5055791;28;20211;-65
2022/01/13 10:25:08;;;;;;;31.03;22.53;;;;;;;-0.15;76.16;98763.16;5056140;28;20207;-65
2022/01/13 10:27:39;;;;;;;30.17;21.50;;;;;;;-0.03;76.33;98761.19;5048703;28;20205;-65
2022/01/13 10:30:15;;;;;;;32.40;22.13;;;;;;;-0.10;76.32;98763.94;5055307;28;20521;-63
2022/01/13 10:32:43;;;;;;;32.20;22.60;;;;;;;-0.11;76.16;98759.63;5054769;28;20199;-64
2022/01/13 10:35:12;;;;;;;31.37;22.93;;;;;;;-0.16;75.77;98764.03;5046076;28;20231;-64
2022/01/13 10:37:40;;;;;;;32.40;23.70;;;;;;;-0.02;76.44;98756.88;5042053;28;20199;-64
2022/01/13 10:40:09;;;;;;;32.20;21.37;;;;;;;-0.10;75.32;98756.13;5057282;28;20208;-64
2022/01/13 10:45:26;;;;;;;30.63;21.63;;;;;;;0.09;75.03;98767.94;5051249;28;20281;-65
2022/01/13 10:47:55;;;;;;;31.27;21.67;;;;;;;0.22;75.08;98755.56;5055279;28;20292;-65
2022/01/13 10:50:23;;;;;;;32.43;22.33;;;;;;;-0.13;74.87;98751.84;5046862;28;20283;-64
2022/01/13 10:52:50;;;;;;;30.23;22.57;;;;;;;0.07;75.21;98761.06;5051485;28;20215;-64
2022/01/13 10:55:18;;;;;;;31.53;22.47;;;;;;;-0.04;75.16;98754.28;5041316;28;20680;-66
2022/01/13 10:57:47;;;;;;;31.33;22.13;;;;;;;0.04;74.16;98753.31;5056359;28;20204;-65
2022/01/13 11:00:21;;;;;;;29.03;20.73;;;;;;;0.04;75.34;98748.94;5038415;28;20219;-64
2022/01/13 11:02:49;;;;;;;30.27;21.33;;;;;;;-0.04;74.67;98749.06;5042881;28;20227;-66
2022/01/13 11:05:15;;;;;;;30.27;21.90;;;;;;;-0.01;75.04;98743.84;5042108;28;20212;-72
2022/01/13 11:07:43;;;;;;;32.17;22.33;;;;;;;0.05;74.86;98736.81;5054997;28;20208;-71
2022/01/13 11:10:09;;;;;;;30.47;21.57;;;;;;;0.06;75.26;98733.31;5055340;28;20210;-71
2022/01/13 11:12:39;;;;;;;33.07;22.30;;;;;;;0.36;75.05;98738.81;5037345;28;20243;-72
2022/01/13 11:15:12;;;;;;;30.80;22.20;;;;;;;0.59;73.14;98725.34;5048889;28;20677;-77
2022/01/13 11:17:40;;;;;;;33.60;23.00;;;;;;;0.64;72.97;98725.25;5055561;28;20226;-74
2022/01/13 11:20:09;;;;;;;30.20;22.60;;;;;;;0.74;72.66;98727.63;5056454;28;20238;-77
2022/01/13 11:22:37;;;;;;;28.67;20.43;;;;;;;0.69;71.95;98724.25;5050367;28;20210;-79
2022/01/13 11:25:04;;;;;;;31.57;21.40;;;;;;;0.79;71.79;98723.16;5051610;28;20205;-80
2022/01/13 11:27:30;;;;;;;30.00;20.43;;;;;;;1.04;70.37;98731.31;5039428;28;20213;-74
2022/01/13 11:29:57;;;;;;;30.27;21.33;;;;;;;1.19;70.58;98722.28;5056418;28;20221;-72
2022/01/13 11:32:25;;;;;;;28.77;20.83;;;;;;;0.99;70.84;98728.78;5056384;28;20224;-75